WJA1701 CYHZ-CYYZ
Flight info
| Callsign | WJA1701 |
|---|---|
| Flight time | N/A |
| Altitude | 36000 |
| Route | KELNO Q806 TUKIR RAGID6 |
| Aircraft | B738/M-SDE2E3FGHIRWXY/LB1 |
Departure
| Time | N/A |
|---|---|
| Airport | Halifax / Stanfield International Airport (CYHZ) |
Arrival
| Time | 2026-05-08 07:09 |
|---|---|
| Airport | Toronto Pearson International Airport (CYYZ) |
| Time | Latitude | Longitude | Altitude | Speed | Heading |
|---|---|---|---|---|---|
| 2026-05-08 06:03 | 45.54792 | -73.40682 | 37850 ft | 423 kts | 265° |
| 2026-05-08 06:04 | 45.54674 | -73.44824 | 37854 ft | 423 kts | 266° |
| 2026-05-08 06:04 | 45.54431 | -73.53202 | 37855 ft | 424 kts | 266° |
| 2026-05-08 06:05 | 45.54181 | -73.61619 | 37853 ft | 425 kts | 266° |
| 2026-05-08 06:05 | 45.53924 | -73.70049 | 37852 ft | 426 kts | 266° |
| 2026-05-08 06:06 | 45.53662 | -73.78434 | 37853 ft | 426 kts | 265° |
| 2026-05-08 06:06 | 45.53392 | -73.86874 | 37851 ft | 427 kts | 265° |
| 2026-05-08 06:07 | 45.53115 | -73.95329 | 37853 ft | 427 kts | 265° |
| 2026-05-08 06:07 | 45.52832 | -74.03783 | 37854 ft | 427 kts | 265° |
| 2026-05-08 06:08 | 45.52544 | -74.12175 | 37853 ft | 426 kts | 265° |
| 2026-05-08 06:08 | 45.52248 | -74.20616 | 37854 ft | 426 kts | 265° |
| 2026-05-08 06:09 | 45.51946 | -74.29054 | 37860 ft | 426 kts | 265° |
| 2026-05-08 06:09 | 45.51637 | -74.37483 | 37854 ft | 426 kts | 265° |
| 2026-05-08 06:10 | 45.51314 | -74.45908 | 37853 ft | 425 kts | 264° |
| 2026-05-08 06:10 | 45.50336 | -74.54134 | 37844 ft | 423 kts | 258° |
| 2026-05-08 06:11 | 45.49125 | -74.62337 | 37855 ft | 423 kts | 258° |
| 2026-05-08 06:11 | 45.47938 | -74.70541 | 37862 ft | 423 kts | 258° |
| 2026-05-08 06:12 | 45.46771 | -74.78756 | 37857 ft | 423 kts | 258° |
| 2026-05-08 06:12 | 45.45611 | -74.86924 | 37853 ft | 424 kts | 258° |
| 2026-05-08 06:13 | 45.44433 | -74.95158 | 37852 ft | 424 kts | 258° |
| 2026-05-08 06:13 | 45.43252 | -75.03386 | 37853 ft | 425 kts | 258° |
| 2026-05-08 06:14 | 45.42264 | -75.10239 | 37868 ft | 425 kts | 258° |
| 2026-05-08 06:14 | 45.40877 | -75.19823 | 37859 ft | 426 kts | 258° |
| 2026-05-08 06:15 | 45.39673 | -75.28084 | 37859 ft | 426 kts | 258° |
| 2026-05-08 06:15 | 45.38666 | -75.34947 | 37863 ft | 426 kts | 258° |
| 2026-05-08 06:16 | 45.37449 | -75.43203 | 37863 ft | 427 kts | 258° |
| 2026-05-08 06:16 | 45.36026 | -75.52801 | 37871 ft | 427 kts | 258° |
| 2026-05-08 06:17 | 45.34385 | -75.63795 | 37868 ft | 427 kts | 258° |
| 2026-05-08 06:17 | 45.33144 | -75.72055 | 37874 ft | 427 kts | 258° |
| 2026-05-08 06:18 | 45.31694 | -75.81653 | 37870 ft | 427 kts | 258° |
| 2026-05-08 06:18 | 45.30645 | -75.88559 | 37873 ft | 427 kts | 258° |
| 2026-05-08 06:19 | 45.29395 | -75.96752 | 37884 ft | 427 kts | 258° |
| 2026-05-08 06:19 | 45.28131 | -76.04983 | 37885 ft | 427 kts | 258° |
| 2026-05-08 06:20 | 45.26656 | -76.14545 | 37886 ft | 426 kts | 258° |
| 2026-05-08 06:20 | 45.25558 | -76.21420 | 37878 ft | 426 kts | 253° |
| 2026-05-08 06:21 | 45.24367 | -76.25208 | 37893 ft | 427 kts | 239° |
| 2026-05-08 06:21 | 45.22561 | -76.28565 | 37901 ft | 429 kts | 232° |
| 2026-05-08 06:21 | 45.18629 | -76.34949 | 37897 ft | 430 kts | 231° |
| 2026-05-08 06:22 | 45.14678 | -76.41309 | 37873 ft | 430 kts | 232° |
| 2026-05-08 06:22 | 45.10757 | -76.47696 | 37880 ft | 430 kts | 232° |
| 2026-05-08 06:23 | 45.06875 | -76.54050 | 37891 ft | 430 kts | 232° |
| 2026-05-08 06:23 | 45.02965 | -76.60442 | 37897 ft | 430 kts | 232° |
| 2026-05-08 06:24 | 44.99046 | -76.66833 | 37882 ft | 430 kts | 232° |
| 2026-05-08 06:24 | 44.95124 | -76.73212 | 37893 ft | 430 kts | 232° |
| 2026-05-08 06:25 | 44.91225 | -76.79537 | 37902 ft | 430 kts | 232° |
| 2026-05-08 06:25 | 44.87296 | -76.85897 | 37900 ft | 430 kts | 232° |
| 2026-05-08 06:26 | 44.83358 | -76.92257 | 37899 ft | 430 kts | 232° |
| 2026-05-08 06:26 | 44.79698 | -76.98867 | 37905 ft | 425 kts | 242° |
| 2026-05-08 06:27 | 44.76841 | -77.06085 | 37905 ft | 425 kts | 244° |
| 2026-05-08 06:27 | 44.74000 | -77.13381 | 37903 ft | 425 kts | 243° |
| 2026-05-08 06:28 | 44.71104 | -77.20621 | 37916 ft | 425 kts | 243° |
| 2026-05-08 06:28 | 44.69631 | -77.24257 | 37487 ft | 431 kts | 243° |
| 2026-05-08 06:28 | 44.68145 | -77.27909 | 36974 ft | 429 kts | 243° |
| 2026-05-08 06:29 | 44.66683 | -77.31489 | 36449 ft | 427 kts | 243° |
| 2026-05-08 06:29 | 44.65205 | -77.35106 | 35865 ft | 427 kts | 243° |
| 2026-05-08 06:29 | 44.63729 | -77.38714 | 35255 ft | 427 kts | 243° |
| 2026-05-08 06:29 | 44.62246 | -77.42337 | 34731 ft | 426 kts | 243° |
| 2026-05-08 06:30 | 44.60773 | -77.45931 | 34265 ft | 424 kts | 243° |
| 2026-05-08 06:30 | 44.59310 | -77.49495 | 33825 ft | 420 kts | 243° |
| 2026-05-08 06:30 | 44.57859 | -77.53027 | 33305 ft | 417 kts | 243° |
| 2026-05-08 06:30 | 44.56414 | -77.56539 | 32851 ft | 412 kts | 243° |
| 2026-05-08 06:31 | 44.54988 | -77.60003 | 32412 ft | 408 kts | 243° |
| 2026-05-08 06:31 | 44.53576 | -77.63429 | 31983 ft | 404 kts | 243° |
| 2026-05-08 06:31 | 44.52197 | -77.66771 | 31554 ft | 400 kts | 244° |
| 2026-05-08 06:31 | 44.50810 | -77.70128 | 31102 ft | 397 kts | 244° |
| 2026-05-08 06:32 | 44.49431 | -77.73462 | 30661 ft | 394 kts | 244° |
| 2026-05-08 06:32 | 44.48062 | -77.76764 | 30250 ft | 390 kts | 244° |
| 2026-05-08 06:32 | 44.46705 | -77.80034 | 29803 ft | 387 kts | 244° |
| 2026-05-08 06:32 | 44.45358 | -77.83273 | 29324 ft | 383 kts | 244° |
| 2026-05-08 06:33 | 44.44027 | -77.86471 | 28909 ft | 377 kts | 243° |
| 2026-05-08 06:33 | 44.42715 | -77.89621 | 28500 ft | 373 kts | 243° |
| 2026-05-08 06:33 | 44.41439 | -77.92682 | 28098 ft | 368 kts | 243° |
| 2026-05-08 06:33 | 44.40151 | -77.95765 | 27687 ft | 364 kts | 243° |
| 2026-05-08 06:34 | 44.38882 | -77.98803 | 27289 ft | 360 kts | 243° |
| 2026-05-08 06:34 | 44.37626 | -78.01808 | 26896 ft | 356 kts | 243° |
| 2026-05-08 06:34 | 44.36382 | -78.04779 | 26476 ft | 353 kts | 244° |
| 2026-05-08 06:34 | 44.35148 | -78.07723 | 26102 ft | 349 kts | 243° |
| 2026-05-08 06:35 | 44.33923 | -78.10645 | 25655 ft | 348 kts | 243° |
| 2026-05-08 06:35 | 44.32702 | -78.13549 | 25263 ft | 346 kts | 243° |
| 2026-05-08 06:35 | 44.31505 | -78.16396 | 24883 ft | 343 kts | 243° |
| 2026-05-08 06:35 | 44.30300 | -78.19256 | 24505 ft | 341 kts | 243° |
| 2026-05-08 06:36 | 44.29102 | -78.22097 | 24132 ft | 339 kts | 243° |
| 2026-05-08 06:36 | 44.27908 | -78.24924 | 23767 ft | 337 kts | 243° |
| 2026-05-08 06:36 | 44.26724 | -78.27726 | 23366 ft | 335 kts | 243° |
| 2026-05-08 06:36 | 44.25542 | -78.30522 | 22938 ft | 333 kts | 243° |
| 2026-05-08 06:37 | 44.24372 | -78.33283 | 22594 ft | 329 kts | 243° |
| 2026-05-08 06:37 | 44.23211 | -78.36020 | 22225 ft | 326 kts | 243° |
| 2026-05-08 06:37 | 44.22079 | -78.38688 | 21868 ft | 323 kts | 243° |
| 2026-05-08 06:37 | 44.20941 | -78.41369 | 21523 ft | 320 kts | 243° |
| 2026-05-08 06:38 | 44.19812 | -78.44025 | 21165 ft | 317 kts | 243° |
| 2026-05-08 06:38 | 44.18693 | -78.46654 | 20815 ft | 315 kts | 243° |
| 2026-05-08 06:38 | 44.17581 | -78.49265 | 20472 ft | 312 kts | 243° |
| 2026-05-08 06:38 | 44.16477 | -78.51855 | 20122 ft | 310 kts | 243° |
| 2026-05-08 06:39 | 44.15381 | -78.54426 | 19782 ft | 308 kts | 242° |
| 2026-05-08 06:39 | 44.14289 | -78.56983 | 19444 ft | 306 kts | 242° |
| 2026-05-08 06:39 | 44.13222 | -78.59478 | 19112 ft | 304 kts | 242° |
| 2026-05-08 06:39 | 44.12139 | -78.62010 | 18778 ft | 302 kts | 242° |
| 2026-05-08 06:40 | 44.11067 | -78.64513 | 18447 ft | 301 kts | 242° |
| 2026-05-08 06:40 | 44.09998 | -78.67006 | 18103 ft | 299 kts | 242° |
| 2026-05-08 06:40 | 44.08935 | -78.69483 | 17732 ft | 297 kts | 242° |
| 2026-05-08 06:40 | 44.07880 | -78.71939 | 17410 ft | 294 kts | 242° |
| 2026-05-08 06:41 | 44.06836 | -78.74371 | 17097 ft | 291 kts | 242° |
| 2026-05-08 06:41 | 44.05796 | -78.76790 | 16764 ft | 292 kts | 242° |
| 2026-05-08 06:41 | 44.04769 | -78.79181 | 16446 ft | 293 kts | 243° |
| 2026-05-08 06:41 | 44.03941 | -78.81773 | 16094 ft | 296 kts | 257° |
| 2026-05-08 06:42 | 44.03510 | -78.84590 | 15763 ft | 299 kts | 260° |
| 2026-05-08 06:42 | 44.03117 | -78.87412 | 15456 ft | 296 kts | 260° |
| 2026-05-08 06:42 | 44.02727 | -78.90201 | 15125 ft | 293 kts | 260° |
| 2026-05-08 06:42 | 44.02332 | -78.92975 | 14797 ft | 291 kts | 260° |
| 2026-05-08 06:43 | 44.01935 | -78.95715 | 14467 ft | 288 kts | 260° |
| 2026-05-08 06:43 | 44.01536 | -78.98427 | 14135 ft | 286 kts | 260° |
| 2026-05-08 06:43 | 44.01137 | -79.01121 | 13824 ft | 284 kts | 259° |
| 2026-05-08 06:43 | 44.00744 | -79.03761 | 13475 ft | 282 kts | 259° |
| 2026-05-08 06:44 | 44.00347 | -79.06409 | 13166 ft | 278 kts | 260° |
| 2026-05-08 06:44 | 43.99954 | -79.09030 | 12835 ft | 276 kts | 260° |
| 2026-05-08 06:44 | 43.99565 | -79.11621 | 12522 ft | 273 kts | 260° |
| 2026-05-08 06:44 | 43.99182 | -79.14164 | 12408 ft | 264 kts | 260° |
| 2026-05-08 06:45 | 43.98811 | -79.16620 | 12255 ft | 256 kts | 260° |
| 2026-05-08 06:45 | 43.98452 | -79.19003 | 12110 ft | 250 kts | 260° |
| 2026-05-08 06:45 | 43.98110 | -79.21358 | 11853 ft | 247 kts | 261° |
| 2026-05-08 06:45 | 43.97779 | -79.23657 | 11574 ft | 246 kts | 261° |
| 2026-05-08 06:46 | 43.97445 | -79.25980 | 11306 ft | 246 kts | 261° |
| 2026-05-08 06:46 | 43.97106 | -79.28336 | 11037 ft | 251 kts | 261° |
| 2026-05-08 06:46 | 43.96759 | -79.30738 | 10753 ft | 257 kts | 261° |
| 2026-05-08 06:46 | 43.96404 | -79.33188 | 10460 ft | 261 kts | 260° |
| 2026-05-08 06:47 | 43.96047 | -79.35640 | 10211 ft | 257 kts | 260° |
| 2026-05-08 06:47 | 43.95417 | -79.37911 | 10073 ft | 254 kts | 238° |
| 2026-05-08 06:47 | 43.94211 | -79.39665 | 9937 ft | 252 kts | 222° |
| 2026-05-08 06:47 | 43.92718 | -79.40906 | 9660 ft | 254 kts | 214° |
| 2026-05-08 06:48 | 43.91137 | -79.41991 | 9389 ft | 253 kts | 212° |
| 2026-05-08 06:48 | 43.89557 | -79.43041 | 9122 ft | 251 kts | 212° |
| 2026-05-08 06:48 | 43.87993 | -79.44086 | 8865 ft | 248 kts | 213° |
| 2026-05-08 06:48 | 43.86447 | -79.45136 | 8604 ft | 246 kts | 213° |
| 2026-05-08 06:49 | 43.84924 | -79.46175 | 8452 ft | 240 kts | 213° |
| 2026-05-08 06:49 | 43.83449 | -79.47187 | 8340 ft | 233 kts | 213° |
| 2026-05-08 06:49 | 43.82024 | -79.48168 | 8236 ft | 225 kts | 214° |
| 2026-05-08 06:49 | 43.80640 | -79.49123 | 8125 ft | 222 kts | 214° |
| 2026-05-08 06:50 | 43.79273 | -79.50069 | 8040 ft | 223 kts | 214° |
| 2026-05-08 06:50 | 43.77882 | -79.51031 | 8008 ft | 223 kts | 214° |
| 2026-05-08 06:50 | 43.76501 | -79.51986 | 8005 ft | 221 kts | 214° |
| 2026-05-08 06:50 | 43.75053 | -79.52742 | 7973 ft | 231 kts | 190° |
| 2026-05-08 06:51 | 43.73441 | -79.52265 | 8040 ft | 245 kts | 166° |
| 2026-05-08 06:51 | 43.71811 | -79.51484 | 8006 ft | 249 kts | 170° |
| 2026-05-08 06:51 | 43.70146 | -79.50839 | 8003 ft | 247 kts | 173° |
| 2026-05-08 06:51 | 43.68490 | -79.50264 | 7992 ft | 244 kts | 174° |
| 2026-05-08 06:52 | 43.66871 | -79.49731 | 7991 ft | 241 kts | 174° |
| 2026-05-08 06:52 | 43.65245 | -79.49474 | 7982 ft | 228 kts | 199° |
| 2026-05-08 06:52 | 43.63881 | -79.50336 | 8014 ft | 213 kts | 222° |
| 2026-05-08 06:52 | 43.62654 | -79.51507 | 8007 ft | 216 kts | 222° |
| 2026-05-08 06:53 | 43.61421 | -79.52690 | 8005 ft | 215 kts | 222° |
| 2026-05-08 06:53 | 43.60211 | -79.53845 | 8015 ft | 206 kts | 223° |
| 2026-05-08 06:53 | 43.59142 | -79.55028 | 8005 ft | 188 kts | 234° |
| 2026-05-08 06:53 | 43.58276 | -79.56336 | 8008 ft | 184 kts | 234° |
| 2026-05-08 06:54 | 43.57409 | -79.57621 | 8003 ft | 183 kts | 234° |
| 2026-05-08 06:54 | 43.56553 | -79.58882 | 7996 ft | 182 kts | 234° |
| 2026-05-08 06:54 | 43.55690 | -79.60147 | 8000 ft | 181 kts | 234° |
| 2026-05-08 06:54 | 43.54830 | -79.61405 | 7995 ft | 179 kts | 234° |
| 2026-05-08 06:55 | 43.53974 | -79.62655 | 8003 ft | 180 kts | 234° |
| 2026-05-08 06:55 | 43.53115 | -79.63905 | 8009 ft | 180 kts | 234° |
| 2026-05-08 06:55 | 43.52251 | -79.65164 | 8012 ft | 181 kts | 234° |
| 2026-05-08 06:55 | 43.51390 | -79.66414 | 7927 ft | 180 kts | 234° |
| 2026-05-08 06:56 | 43.50551 | -79.67628 | 7804 ft | 169 kts | 234° |
| 2026-05-08 06:56 | 43.49760 | -79.68774 | 7495 ft | 167 kts | 234° |
| 2026-05-08 06:56 | 43.48961 | -79.69936 | 7120 ft | 168 kts | 234° |
| 2026-05-08 06:56 | 43.48156 | -79.71105 | 6777 ft | 168 kts | 234° |
| 2026-05-08 06:57 | 43.47354 | -79.72269 | 6435 ft | 168 kts | 233° |
| 2026-05-08 06:57 | 43.46545 | -79.73437 | 6092 ft | 168 kts | 233° |
| 2026-05-08 06:57 | 43.45741 | -79.74599 | 5765 ft | 166 kts | 233° |
| 2026-05-08 06:57 | 43.44955 | -79.75733 | 5618 ft | 164 kts | 233° |
| 2026-05-08 06:58 | 43.44163 | -79.76877 | 5519 ft | 167 kts | 233° |
| 2026-05-08 06:58 | 43.43355 | -79.78042 | 5412 ft | 169 kts | 232° |
| 2026-05-08 06:58 | 43.42554 | -79.79197 | 5300 ft | 169 kts | 232° |
| 2026-05-08 06:58 | 43.41745 | -79.80363 | 5192 ft | 168 kts | 232° |
| 2026-05-08 06:59 | 43.40941 | -79.81522 | 5085 ft | 167 kts | 232° |
| 2026-05-08 06:59 | 43.40122 | -79.82701 | 4819 ft | 172 kts | 232° |
| 2026-05-08 06:59 | 43.39299 | -79.83884 | 4553 ft | 170 kts | 232° |
| 2026-05-08 06:59 | 43.38485 | -79.85054 | 4278 ft | 168 kts | 232° |
| 2026-05-08 07:00 | 43.37685 | -79.86207 | 4003 ft | 166 kts | 231° |
| 2026-05-08 07:00 | 43.36896 | -79.87371 | 3751 ft | 165 kts | 237° |
| 2026-05-08 07:00 | 43.36598 | -79.88833 | 3479 ft | 162 kts | 278° |
| 2026-05-08 07:00 | 43.37054 | -79.90221 | 3233 ft | 167 kts | 311° |
| 2026-05-08 07:01 | 43.38082 | -79.90972 | 3067 ft | 175 kts | 349° |
| 2026-05-08 07:01 | 43.39275 | -79.90649 | 3033 ft | 181 kts | 26° |
| 2026-05-08 07:01 | 43.40364 | -79.89786 | 3015 ft | 181 kts | 26° |
| 2026-05-08 07:01 | 43.41450 | -79.88922 | 3013 ft | 180 kts | 26° |
| 2026-05-08 07:02 | 43.42538 | -79.88052 | 3013 ft | 181 kts | 27° |
| 2026-05-08 07:02 | 43.43627 | -79.87183 | 3009 ft | 181 kts | 26° |
| 2026-05-08 07:02 | 43.44714 | -79.86313 | 3007 ft | 181 kts | 26° |
| 2026-05-08 07:02 | 43.45776 | -79.85463 | 3009 ft | 176 kts | 26° |
| 2026-05-08 07:03 | 43.46818 | -79.84629 | 3000 ft | 171 kts | 26° |
| 2026-05-08 07:03 | 43.47842 | -79.83810 | 3005 ft | 170 kts | 26° |
| 2026-05-08 07:03 | 43.48865 | -79.82992 | 3016 ft | 170 kts | 26° |
| 2026-05-08 07:03 | 43.49892 | -79.82170 | 3024 ft | 171 kts | 26° |
| 2026-05-08 07:04 | 43.50925 | -79.81343 | 3020 ft | 172 kts | 26° |
| 2026-05-08 07:04 | 43.51962 | -79.80511 | 3022 ft | 173 kts | 27° |
| 2026-05-08 07:04 | 43.53002 | -79.79676 | 3017 ft | 174 kts | 27° |
| 2026-05-08 07:04 | 43.54047 | -79.78837 | 3006 ft | 174 kts | 26° |
| 2026-05-08 07:05 | 43.55031 | -79.77907 | 3007 ft | 176 kts | 40° |
| 2026-05-08 07:05 | 43.55889 | -79.76706 | 3014 ft | 176 kts | 44° |
| 2026-05-08 07:05 | 43.56725 | -79.75477 | 3013 ft | 176 kts | 44° |
| 2026-05-08 07:05 | 43.57564 | -79.74248 | 3008 ft | 176 kts | 43° |
| 2026-05-08 07:06 | 43.58407 | -79.73016 | 2801 ft | 175 kts | 43° |
| 2026-05-08 07:06 | 43.59222 | -79.71825 | 2600 ft | 164 kts | 43° |
| 2026-05-08 07:06 | 43.60003 | -79.70686 | 2358 ft | 163 kts | 43° |
| 2026-05-08 07:06 | 43.60777 | -79.69558 | 2128 ft | 161 kts | 44° |
| 2026-05-08 07:07 | 43.61529 | -79.68461 | 1897 ft | 158 kts | 44° |
| 2026-05-08 07:07 | 43.62284 | -79.67361 | 1687 ft | 158 kts | 45° |
| 2026-05-08 07:07 | 43.63038 | -79.66262 | 1455 ft | 156 kts | 46° |
| 2026-05-08 07:07 | 43.63774 | -79.65189 | 1214 ft | 151 kts | 46° |
| 2026-05-08 07:08 | 43.64488 | -79.64150 | 1002 ft | 148 kts | 47° |
| 2026-05-08 07:08 | 43.65190 | -79.63127 | 805 ft | 146 kts | 47° |
| 2026-05-08 07:08 | 43.65889 | -79.62109 | 618 ft | 146 kts | 47° |
| 2026-05-08 07:08 | 43.66543 | -79.61151 | 560 ft | 103 kts | 46° |
| 2026-05-08 07:09 | 43.66809 | -79.60899 | 566 ft | 25 kts | 21° |
| 2026-05-08 07:09 | 43.66957 | -79.60855 | 563 ft | 20 kts | 337° |
| 2026-05-08 07:09 | 43.67058 | -79.60972 | 562 ft | 19 kts | 321° |
| 2026-05-08 07:09 | 43.67169 | -79.61056 | 564 ft | 19 kts | 353° |
| 2026-05-08 07:10 | 43.67275 | -79.60971 | 563 ft | 18 kts | 47° |
| 2026-05-08 07:10 | 43.67361 | -79.60846 | 563 ft | 18 kts | 45° |
| 2026-05-08 07:10 | 43.67461 | -79.60846 | 559 ft | 17 kts | 317° |
| 2026-05-08 07:10 | 43.67513 | -79.60976 | 560 ft | 16 kts | 257° |
| 2026-05-08 07:11 | 43.67480 | -79.61121 | 563 ft | 16 kts | 263° |
| 2026-05-08 07:11 | 43.67486 | -79.61266 | 565 ft | 15 kts | 288° |
| 2026-05-08 07:11 | 43.67526 | -79.61397 | 566 ft | 15 kts | 302° |
| 2026-05-08 07:11 | 43.67602 | -79.61504 | 561 ft | 16 kts | 318° |
| 2026-05-08 07:12 | 43.67683 | -79.61621 | 564 ft | 18 kts | 311° |
| 2026-05-08 07:12 | 43.67790 | -79.61682 | 564 ft | 17 kts | 0° |
| 2026-05-08 07:12 | 43.67836 | -79.61679 | 564 ft | 2 kts | 2° |
| 2026-05-08 07:12 | 43.67838 | -79.61679 | 564 ft | 0 kts | 1° |